Yuho Maru No.3 — JD2491 — position and weather

sailwx.info

Track history (hours):
 
Tides and Currents Weather Stations Pressure Air Temp Water Temp Dewpoint Dewpoint Depression Visibility Wind Speed Wind Dir Waves Ship Positions

Yuho Maru No.3

Last reported at 2014-Nov-19 07:34 UTC. Time now 2014-Nov-23 22:13 UTC.
Position N 34°36' E 135°04'.

Length 65 m; draft 4.2 m.

Type: Tanker. MMSI: 431000336.

Date/timePositionNaut miles runAvg speedWind from/ knotsBaromVisibWave heightAir tempDewpointWater temp
2014-Nov-19 07:34N 34°36' E 135°04'1313.1
2014-Nov-19 06:33N 34°39' E 135°20'5 4.3
2014-Nov-19 05:29N 34°40' E 135°25'0 0.1
2014-Nov-19 04:33N 34°40' E 135°25'0 0.2
2014-Nov-19 03:33N 34°40' E 135°25'0 0.0
2014-Nov-19 02:33N 34°40' E 135°25'0 0.2
2014-Nov-19 01:33N 34°40' E 135°25'6 6.2
2014-Nov-19 00:33N 34°40' E 135°17'0 0.0
2014-Nov-18 23:33N 34°40' E 135°17'0 0.1
2014-Nov-18 22:33N 34°40' E 135°18'1 1.1
2014-Nov-18 21:33N 34°39' E 135°19'0 0.0
2014-Nov-18 20:33N 34°39' E 135°19'0 0.0
2014-Nov-18 19:33N 34°39' E 135°19'0 0.0
2014-Nov-18 18:33N 34°39' E 135°19'0 0.0
2014-Nov-18 17:33N 34°39' E 135°19'0 0.0
2014-Nov-18 16:33N 34°39' E 135°19'0 0.0
2014-Nov-18 15:33N 34°39' E 135°19'0 0.0
2014-Nov-18 14:33N 34°39' E 135°19'0 0.0
2014-Nov-18 13:33N 34°39' E 135°19'0 0.0
2014-Nov-18 12:33N 34°39' E 135°19'5 5.0
2014-Nov-18 11:33N 34°36' E 135°15'1211.8
2014-Nov-18 10:33N 34°37' E 135°00'33 0.7
2014-Nov-16 13:21N 34°07' E 134°45'253 9.1
2014-Nov-15 09:31N 35°08' E 139°43'1010.0
2014-Nov-15 08:31N 35°18' E 139°44'9 9.6
2014-Nov-15 07:33N 35°27' E 139°48'11 2.6
2014-Nov-15 03:15N 35°30' E 140°01'0 0.6
2014-Nov-15 02:30N 35°30' E 140°00'0 0.0
2014-Nov-14 23:31N 35°30' E 140°00'1010.7
2014-Nov-14 22:33N 35°26' E 139°49'1110.6
2014-Nov-14 21:33N 35°16' E 139°47'1211.5
2014-Nov-14 20:33N 35°04' E 139°43'255 6.8
2014-Nov-13 07:10N 34°13' E 134°40'  
2014-Nov-10 07:26N 34°08' E 132°22'1010.9
2014-Nov-10 06:33N 34°14' E 132°13'0 0.0
2014-Nov-10 05:33N 34°14' E 132°13'0 0.0
2014-Nov-10 04:32N 34°14' E 132°13'0 0.0
2014-Nov-10 03:33N 34°14' E 132°13'8 0.5
2014-Nov-09 11:32N 34°09' E 132°21'  
Track history (hours):
 
Tides and Currents Weather Stations Pressure Air Temp Water Temp Dewpoint Dewpoint Depression Visibility Wind Speed Wind Dir Waves Ship Positions

Yuho Maru No.3

Last reported at 2014-Nov-19 07:34 UTC. Time now 2014-Nov-23 22:13 UTC.
Position N 34°36' E 135°04'.

Length 65 m; draft 4.2 m.

Type: Tanker. MMSI: 431000336.

Date/timePositionNaut miles runAvg speedWind from/ knotsBaromVisibWave heightAir tempDewpointWater temp
2014-Nov-19 07:34N 34°36' E 135°04'1313.1
2014-Nov-19 06:33N 34°39' E 135°20'5 4.3
2014-Nov-19 05:29N 34°40' E 135°25'0 0.1
2014-Nov-19 04:33N 34°40' E 135°25'0 0.2
2014-Nov-19 03:33N 34°40' E 135°25'0 0.0
2014-Nov-19 02:33N 34°40' E 135°25'0 0.2
2014-Nov-19 01:33N 34°40' E 135°25'6 6.2
2014-Nov-19 00:33N 34°40' E 135°17'0 0.0
2014-Nov-18 23:33N 34°40' E 135°17'0 0.1
2014-Nov-18 22:33N 34°40' E 135°18'1 1.1
2014-Nov-18 21:33N 34°39' E 135°19'0 0.0
2014-Nov-18 20:33N 34°39' E 135°19'0 0.0
2014-Nov-18 19:33N 34°39' E 135°19'0 0.0
2014-Nov-18 18:33N 34°39' E 135°19'0 0.0
2014-Nov-18 17:33N 34°39' E 135°19'0 0.0
2014-Nov-18 16:33N 34°39' E 135°19'0 0.0
2014-Nov-18 15:33N 34°39' E 135°19'0 0.0
2014-Nov-18 14:33N 34°39' E 135°19'0 0.0
2014-Nov-18 13:33N 34°39' E 135°19'0 0.0
2014-Nov-18 12:33N 34°39' E 135°19'5 5.0
2014-Nov-18 11:33N 34°36' E 135°15'1211.8
2014-Nov-18 10:33N 34°37' E 135°00'33 0.7
2014-Nov-16 13:21N 34°07' E 134°45'253 9.1
2014-Nov-15 09:31N 35°08' E 139°43'1010.0
2014-Nov-15 08:31N 35°18' E 139°44'9 9.6
2014-Nov-15 07:33N 35°27' E 139°48'11 2.6
2014-Nov-15 03:15N 35°30' E 140°01'0 0.6
2014-Nov-15 02:30N 35°30' E 140°00'0 0.0
2014-Nov-14 23:31N 35°30' E 140°00'1010.7
2014-Nov-14 22:33N 35°26' E 139°49'1110.6
2014-Nov-14 21:33N 35°16' E 139°47'1211.5
2014-Nov-14 20:33N 35°04' E 139°43'255 6.8
2014-Nov-13 07:10N 34°13' E 134°40'  
2014-Nov-10 07:26N 34°08' E 132°22'1010.9
2014-Nov-10 06:33N 34°14' E 132°13'0 0.0
2014-Nov-10 05:33N 34°14' E 132°13'0 0.0
2014-Nov-10 04:32N 34°14' E 132°13'0 0.0
2014-Nov-10 03:33N 34°14' E 132°13'8 0.5
2014-Nov-09 11:32N 34°09' E 132°21'  

Dump ship's entire track history